sensor_id;sensor_type;location;lat;lon;timestamp;P1;durP1;ratioP1;P2;durP2;ratioP2
14528;SDS011;7351;51.194;4.098;2022-08-14T00:01:21;5.93;;;4.95;;
14528;SDS011;7351;51.194;4.098;2022-08-14T00:03:48;5.30;;;5.00;;
14528;SDS011;7351;51.194;4.098;2022-08-14T00:06:15;5.50;;;4.97;;
14528;SDS011;7351;51.194;4.098;2022-08-14T00:08:42;9.40;;;5.20;;
14528;SDS011;7351;51.194;4.098;2022-08-14T00:11:09;4.85;;;4.50;;
14528;SDS011;7351;51.194;4.098;2022-08-14T00:13:36;5.18;;;4.80;;
14528;SDS011;7351;51.194;4.098;2022-08-14T00:16:03;4.55;;;4.25;;
14528;SDS011;7351;51.194;4.098;2022-08-14T00:18:33;4.95;;;4.45;;
14528;SDS011;7351;51.194;4.098;2022-08-14T00:21:00;5.80;;;5.10;;
14528;SDS011;7351;51.194;4.098;2022-08-14T00:23:28;11.95;;;6.60;;
14528;SDS011;7351;51.194;4.098;2022-08-14T00:25:56;10.27;;;4.85;;
14528;SDS011;7351;51.194;4.098;2022-08-14T00:28:23;5.80;;;5.40;;
14528;SDS011;7351;51.194;4.098;2022-08-14T00:30:52;5.30;;;4.95;;
14528;SDS011;7351;51.194;4.098;2022-08-14T00:33:21;4.90;;;4.50;;
14528;SDS011;7351;51.194;4.098;2022-08-14T00:35:50;4.60;;;4.20;;
14528;SDS011;7351;51.194;4.098;2022-08-14T00:38:18;6.00;;;5.05;;
14528;SDS011;7351;51.194;4.098;2022-08-14T00:40:46;8.88;;;5.15;;
14528;SDS011;7351;51.194;4.098;2022-08-14T00:43:13;5.57;;;5.05;;
14528;SDS011;7351;51.194;4.098;2022-08-14T00:45:40;6.10;;;4.05;;
14528;SDS011;7351;51.194;4.098;2022-08-14T00:48:08;4.72;;;4.43;;
14528;SDS011;7351;51.194;4.098;2022-08-14T00:50:35;5.28;;;4.75;;
14528;SDS011;7351;51.194;4.098;2022-08-14T00:53:06;5.13;;;4.70;;
14528;SDS011;7351;51.194;4.098;2022-08-14T00:55:34;5.93;;;4.55;;
14528;SDS011;7351;51.194;4.098;2022-08-14T00:58:05;6.07;;;5.57;;
14528;SDS011;7351;51.194;4.098;2022-08-14T01:00:50;4.57;;;4.28;;
14528;SDS011;7351;51.194;4.098;2022-08-14T01:03:18;5.22;;;4.82;;
14528;SDS011;7351;51.194;4.098;2022-08-14T01:05:48;5.68;;;5.28;;
14528;SDS011;7351;51.194;4.098;2022-08-14T01:08:19;5.65;;;5.18;;
14528;SDS011;7351;51.194;4.098;2022-08-14T01:10:47;5.25;;;4.85;;
14528;SDS011;7351;51.194;4.098;2022-08-14T01:13:18;8.07;;;4.72;;
14528;SDS011;7351;51.194;4.098;2022-08-14T01:15:47;4.80;;;4.50;;
14528;SDS011;7351;51.194;4.098;2022-08-14T01:18:16;5.85;;;5.45;;
14528;SDS011;7351;51.194;4.098;2022-08-14T01:21:01;7.13;;;5.18;;
14528;SDS011;7351;51.194;4.098;2022-08-14T01:23:32;6.30;;;5.65;;
14528;SDS011;7351;51.194;4.098;2022-08-14T01:25:59;5.32;;;4.82;;
14528;SDS011;7351;51.194;4.098;2022-08-14T01:28:26;5.37;;;4.93;;
14528;SDS011;7351;51.194;4.098;2022-08-14T01:30:55;5.53;;;5.07;;
14528;SDS011;7351;51.194;4.098;2022-08-14T01:33:23;5.60;;;5.28;;
14528;SDS011;7351;51.194;4.098;2022-08-14T01:35:53;6.35;;;5.95;;
14528;SDS011;7351;51.194;4.098;2022-08-14T01:38:22;6.05;;;5.40;;
14528;SDS011;7351;51.194;4.098;2022-08-14T01:40:52;6.63;;;5.63;;
14528;SDS011;7351;51.194;4.098;2022-08-14T01:43:19;6.53;;;5.90;;
14528;SDS011;7351;51.194;4.098;2022-08-14T01:45:46;6.57;;;6.10;;
14528;SDS011;7351;51.194;4.098;2022-08-14T01:48:15;5.67;;;5.27;;
14528;SDS011;7351;51.194;4.098;2022-08-14T01:50:42;6.60;;;6.13;;
14528;SDS011;7351;51.194;4.098;2022-08-14T01:53:10;6.77;;;6.00;;
14528;SDS011;7351;51.194;4.098;2022-08-14T01:55:37;5.73;;;5.27;;
14528;SDS011;7351;51.194;4.098;2022-08-14T01:58:06;6.90;;;6.00;;
14528;SDS011;7351;51.194;4.098;2022-08-14T02:00:37;6.93;;;6.33;;
14528;SDS011;7351;51.194;4.098;2022-08-14T02:03:04;6.77;;;6.27;;
14528;SDS011;7351;51.194;4.098;2022-08-14T02:05:32;6.17;;;5.83;;
14528;SDS011;7351;51.194;4.098;2022-08-14T02:08:00;6.30;;;5.80;;
14528;SDS011;7351;51.194;4.098;2022-08-14T02:10:27;6.67;;;6.17;;
14528;SDS011;7351;51.194;4.098;2022-08-14T02:12:54;10.77;;;6.57;;
14528;SDS011;7351;51.194;4.098;2022-08-14T02:15:23;6.50;;;5.93;;
14528;SDS011;7351;51.194;4.098;2022-08-14T02:17:50;6.90;;;6.50;;
14528;SDS011;7351;51.194;4.098;2022-08-14T02:20:17;6.33;;;5.93;;
14528;SDS011;7351;51.194;4.098;2022-08-14T02:22:45;6.83;;;6.23;;
14528;SDS011;7351;51.194;4.098;2022-08-14T02:25:12;7.53;;;6.40;;
14528;SDS011;7351;51.194;4.098;2022-08-14T02:27:40;7.10;;;6.50;;
14528;SDS011;7351;51.194;4.098;2022-08-14T02:30:10;7.53;;;7.03;;
14528;SDS011;7351;51.194;4.098;2022-08-14T02:32:40;7.30;;;6.63;;
14528;SDS011;7351;51.194;4.098;2022-08-14T02:35:08;7.77;;;7.17;;
14528;SDS011;7351;51.194;4.098;2022-08-14T02:37:42;7.63;;;7.10;;
14528;SDS011;7351;51.194;4.098;2022-08-14T02:40:09;8.03;;;7.47;;
14528;SDS011;7351;51.194;4.098;2022-08-14T02:42:37;7.20;;;6.80;;
14528;SDS011;7351;51.194;4.098;2022-08-14T02:45:05;7.17;;;6.77;;
14528;SDS011;7351;51.194;4.098;2022-08-14T02:47:33;8.17;;;7.67;;
14528;SDS011;7351;51.194;4.098;2022-08-14T02:50:02;7.83;;;7.33;;
14528;SDS011;7351;51.194;4.098;2022-08-14T02:52:30;8.27;;;7.67;;
14528;SDS011;7351;51.194;4.098;2022-08-14T02:54:59;10.37;;;9.50;;
14528;SDS011;7351;51.194;4.098;2022-08-14T02:57:26;8.23;;;7.50;;
14528;SDS011;7351;51.194;4.098;2022-08-14T02:59:54;9.23;;;8.43;;
14528;SDS011;7351;51.194;4.098;2022-08-14T03:02:22;9.73;;;9.03;;
14528;SDS011;7351;51.194;4.098;2022-08-14T03:04:49;7.23;;;6.83;;
14528;SDS011;7351;51.194;4.098;2022-08-14T03:07:19;8.47;;;7.77;;
14528;SDS011;7351;51.194;4.098;2022-08-14T03:09:46;10.17;;;9.17;;
14528;SDS011;7351;51.194;4.098;2022-08-14T03:12:13;9.30;;;8.70;;
14528;SDS011;7351;51.194;4.098;2022-08-14T03:14:40;9.73;;;9.03;;
14528;SDS011;7351;51.194;4.098;2022-08-14T03:17:11;9.33;;;8.73;;
14528;SDS011;7351;51.194;4.098;2022-08-14T03:19:40;9.87;;;9.17;;
14528;SDS011;7351;51.194;4.098;2022-08-14T03:22:09;9.27;;;8.67;;
14528;SDS011;7351;51.194;4.098;2022-08-14T03:24:37;14.03;;;9.40;;
14528;SDS011;7351;51.194;4.098;2022-08-14T03:27:04;9.90;;;9.30;;
14528;SDS011;7351;51.194;4.098;2022-08-14T03:29:31;9.60;;;8.90;;
14528;SDS011;7351;51.194;4.098;2022-08-14T03:31:58;10.27;;;9.47;;
14528;SDS011;7351;51.194;4.098;2022-08-14T03:34:25;9.63;;;8.73;;
14528;SDS011;7351;51.194;4.098;2022-08-14T03:36:52;8.90;;;8.20;;
14528;SDS011;7351;51.194;4.098;2022-08-14T03:39:22;8.50;;;7.90;;
14528;SDS011;7351;51.194;4.098;2022-08-14T03:41:52;9.23;;;8.57;;
14528;SDS011;7351;51.194;4.098;2022-08-14T03:44:21;9.07;;;8.27;;
14528;SDS011;7351;51.194;4.098;2022-08-14T03:46:49;9.27;;;8.77;;
14528;SDS011;7351;51.194;4.098;2022-08-14T03:49:16;10.17;;;9.37;;
14528;SDS011;7351;51.194;4.098;2022-08-14T03:51:47;9.80;;;9.10;;
14528;SDS011;7351;51.194;4.098;2022-08-14T03:54:15;9.83;;;9.23;;
14528;SDS011;7351;51.194;4.098;2022-08-14T03:56:41;9.10;;;8.50;;
14528;SDS011;7351;51.194;4.098;2022-08-14T03:59:10;10.80;;;10.07;;
14528;SDS011;7351;51.194;4.098;2022-08-14T04:01:38;10.37;;;9.57;;
14528;SDS011;7351;51.194;4.098;2022-08-14T04:04:06;11.07;;;9.97;;
14528;SDS011;7351;51.194;4.098;2022-08-14T04:06:34;10.17;;;9.40;;
14528;SDS011;7351;51.194;4.098;2022-08-14T04:09:02;9.60;;;8.90;;
14528;SDS011;7351;51.194;4.098;2022-08-14T04:11:31;10.00;;;9.30;;
14528;SDS011;7351;51.194;4.098;2022-08-14T04:14:00;11.83;;;10.13;;
14528;SDS011;7351;51.194;4.098;2022-08-14T04:16:28;10.57;;;9.70;;
14528;SDS011;7351;51.194;4.098;2022-08-14T04:18:57;10.50;;;9.70;;
14528;SDS011;7351;51.194;4.098;2022-08-14T04:21:25;10.80;;;9.87;;
14528;SDS011;7351;51.194;4.098;2022-08-14T04:23:54;13.90;;;9.43;;
14528;SDS011;7351;51.194;4.098;2022-08-14T04:26:23;11.27;;;10.57;;
14528;SDS011;7351;51.194;4.098;2022-08-14T04:28:52;11.67;;;10.97;;
14528;SDS011;7351;51.194;4.098;2022-08-14T04:31:20;12.53;;;11.23;;
14528;SDS011;7351;51.194;4.098;2022-08-14T04:33:49;12.40;;;11.33;;
14528;SDS011;7351;51.194;4.098;2022-08-14T04:36:17;12.67;;;11.80;;
14528;SDS011;7351;51.194;4.098;2022-08-14T04:38:44;11.17;;;10.47;;
14528;SDS011;7351;51.194;4.098;2022-08-14T04:41:28;11.30;;;10.27;;
14528;SDS011;7351;51.194;4.098;2022-08-14T04:44:13;10.77;;;9.90;;
14528;SDS011;7351;51.194;4.098;2022-08-14T04:46:40;12.07;;;11.17;;
14528;SDS011;7351;51.194;4.098;2022-08-14T04:49:31;12.17;;;11.33;;
14528;SDS011;7351;51.194;4.098;2022-08-14T04:51:57;11.17;;;10.27;;
14528;SDS011;7351;51.194;4.098;2022-08-14T04:54:24;12.37;;;11.27;;
14528;SDS011;7351;51.194;4.098;2022-08-14T04:56:52;12.00;;;11.20;;
14528;SDS011;7351;51.194;4.098;2022-08-14T04:59:20;11.07;;;10.20;;
14528;SDS011;7351;51.194;4.098;2022-08-14T05:01:48;12.33;;;11.53;;
14528;SDS011;7351;51.194;4.098;2022-08-14T05:04:15;12.27;;;11.13;;
14528;SDS011;7351;51.194;4.098;2022-08-14T05:06:44;11.67;;;10.87;;
14528;SDS011;7351;51.194;4.098;2022-08-14T05:09:11;12.67;;;11.43;;
14528;SDS011;7351;51.194;4.098;2022-08-14T05:11:38;13.20;;;12.10;;
14528;SDS011;7351;51.194;4.098;2022-08-14T05:14:05;12.70;;;10.50;;
14528;SDS011;7351;51.194;4.098;2022-08-14T05:16:32;11.87;;;10.70;;
14528;SDS011;7351;51.194;4.098;2022-08-14T05:18:59;12.20;;;10.63;;
14528;SDS011;7351;51.194;4.098;2022-08-14T05:21:26;12.50;;;11.47;;
14528;SDS011;7351;51.194;4.098;2022-08-14T05:23:54;13.10;;;11.53;;
14528;SDS011;7351;51.194;4.098;2022-08-14T05:26:21;12.63;;;11.33;;
14528;SDS011;7351;51.194;4.098;2022-08-14T05:28:48;11.37;;;10.40;;
14528;SDS011;7351;51.194;4.098;2022-08-14T05:31:15;10.83;;;9.97;;
14528;SDS011;7351;51.194;4.098;2022-08-14T05:33:45;13.47;;;10.47;;
14528;SDS011;7351;51.194;4.098;2022-08-14T05:36:13;11.40;;;10.40;;
14528;SDS011;7351;51.194;4.098;2022-08-14T05:38:42;13.13;;;10.63;;
14528;SDS011;7351;51.194;4.098;2022-08-14T05:41:16;11.57;;;9.57;;
14528;SDS011;7351;51.194;4.098;2022-08-14T05:43:45;11.30;;;10.10;;
14528;SDS011;7351;51.194;4.098;2022-08-14T05:46:13;12.03;;;11.00;;
14528;SDS011;7351;51.194;4.098;2022-08-14T05:48:46;11.37;;;10.20;;
14528;SDS011;7351;51.194;4.098;2022-08-14T05:51:14;12.40;;;9.53;;
14528;SDS011;7351;51.194;4.098;2022-08-14T05:53:41;12.10;;;9.77;;
14528;SDS011;7351;51.194;4.098;2022-08-14T05:56:08;11.37;;;9.83;;
14528;SDS011;7351;51.194;4.098;2022-08-14T05:58:37;12.17;;;8.70;;
14528;SDS011;7351;51.194;4.098;2022-08-14T06:01:04;10.77;;;9.83;;
14528;SDS011;7351;51.194;4.098;2022-08-14T06:03:33;10.10;;;9.40;;
14528;SDS011;7351;51.194;4.098;2022-08-14T06:06:00;9.37;;;8.57;;
14528;SDS011;7351;51.194;4.098;2022-08-14T06:08:30;12.53;;;8.80;;
14528;SDS011;7351;51.194;4.098;2022-08-14T06:10:58;17.70;;;8.53;;
14528;SDS011;7351;51.194;4.098;2022-08-14T06:13:27;9.60;;;8.97;;
14528;SDS011;7351;51.194;4.098;2022-08-14T06:15:56;9.43;;;8.33;;
14528;SDS011;7351;51.194;4.098;2022-08-14T06:18:25;8.17;;;7.40;;
14528;SDS011;7351;51.194;4.098;2022-08-14T06:20:52;9.17;;;8.23;;
14528;SDS011;7351;51.194;4.098;2022-08-14T06:23:19;8.83;;;7.93;;
14528;SDS011;7351;51.194;4.098;2022-08-14T06:25:46;13.63;;;8.03;;
14528;SDS011;7351;51.194;4.098;2022-08-14T06:28:16;10.63;;;7.13;;
14528;SDS011;7351;51.194;4.098;2022-08-14T06:30:43;7.80;;;7.30;;
14528;SDS011;7351;51.194;4.098;2022-08-14T06:33:12;8.70;;;8.03;;
14528;SDS011;7351;51.194;4.098;2022-08-14T06:35:39;7.47;;;6.97;;
14528;SDS011;7351;51.194;4.098;2022-08-14T06:38:06;6.97;;;6.47;;
14528;SDS011;7351;51.194;4.098;2022-08-14T06:40:34;8.77;;;8.03;;
14528;SDS011;7351;51.194;4.098;2022-08-14T06:43:03;8.17;;;7.57;;
14528;SDS011;7351;51.194;4.098;2022-08-14T06:45:31;7.75;;;7.25;;
14528;SDS011;7351;51.194;4.098;2022-08-14T06:47:59;8.45;;;7.78;;
14528;SDS011;7351;51.194;4.098;2022-08-14T06:50:30;8.20;;;7.60;;
14528;SDS011;7351;51.194;4.098;2022-08-14T06:52:57;9.82;;;9.10;;
14528;SDS011;7351;51.194;4.098;2022-08-14T06:55:25;8.47;;;7.83;;
14528;SDS011;7351;51.194;4.098;2022-08-14T06:57:52;8.30;;;7.72;;
14528;SDS011;7351;51.194;4.098;2022-08-14T07:00:19;8.63;;;8.02;;
14528;SDS011;7351;51.194;4.098;2022-08-14T07:02:48;7.57;;;7.18;;
14528;SDS011;7351;51.194;4.098;2022-08-14T07:05:34;6.90;;;6.50;;
14528;SDS011;7351;51.194;4.098;2022-08-14T07:08:12;8.07;;;7.28;;
14528;SDS011;7351;51.194;4.098;2022-08-14T07:10:41;8.02;;;7.32;;
14528;SDS011;7351;51.194;4.098;2022-08-14T07:13:09;7.90;;;7.05;;
14528;SDS011;7351;51.194;4.098;2022-08-14T07:15:37;7.20;;;6.60;;
14528;SDS011;7351;51.194;4.098;2022-08-14T07:18:05;7.57;;;6.80;;
14528;SDS011;7351;51.194;4.098;2022-08-14T07:20:35;7.20;;;6.70;;
14528;SDS011;7351;51.194;4.098;2022-08-14T07:23:03;7.25;;;6.55;;
14528;SDS011;7351;51.194;4.098;2022-08-14T07:25:33;6.35;;;6.05;;
14528;SDS011;7351;51.194;4.098;2022-08-14T07:28:07;10.10;;;5.60;;
14528;SDS011;7351;51.194;4.098;2022-08-14T07:30:35;5.40;;;4.90;;
14528;SDS011;7351;51.194;4.098;2022-08-14T07:33:03;5.50;;;4.82;;
14528;SDS011;7351;51.194;4.098;2022-08-14T07:35:31;5.13;;;4.82;;
14528;SDS011;7351;51.194;4.098;2022-08-14T07:38:00;6.38;;;5.32;;
14528;SDS011;7351;51.194;4.098;2022-08-14T07:40:28;5.85;;;4.05;;
14528;SDS011;7351;51.194;4.098;2022-08-14T07:42:55;5.13;;;4.82;;
14528;SDS011;7351;51.194;4.098;2022-08-14T07:45:23;5.30;;;4.78;;
14528;SDS011;7351;51.194;4.098;2022-08-14T07:47:50;4.80;;;4.50;;
14528;SDS011;7351;51.194;4.098;2022-08-14T07:50:17;5.68;;;4.70;;
14528;SDS011;7351;51.194;4.098;2022-08-14T07:52:46;5.30;;;4.90;;
14528;SDS011;7351;51.194;4.098;2022-08-14T07:55:15;5.50;;;5.10;;
14528;SDS011;7351;51.194;4.098;2022-08-14T07:57:44;6.40;;;5.80;;
14528;SDS011;7351;51.194;4.098;2022-08-14T08:00:13;5.00;;;4.60;;
14528;SDS011;7351;51.194;4.098;2022-08-14T08:02:45;6.38;;;5.47;;
14528;SDS011;7351;51.194;4.098;2022-08-14T08:05:14;5.60;;;5.20;;
14528;SDS011;7351;51.194;4.098;2022-08-14T08:07:42;6.32;;;5.72;;
14528;SDS011;7351;51.194;4.098;2022-08-14T08:10:10;5.82;;;5.43;;
14528;SDS011;7351;51.194;4.098;2022-08-14T08:13:00;7.03;;;6.63;;
14528;SDS011;7351;51.194;4.098;2022-08-14T08:15:29;7.38;;;6.68;;
14528;SDS011;7351;51.194;4.098;2022-08-14T08:17:59;7.85;;;6.85;;
14528;SDS011;7351;51.194;4.098;2022-08-14T08:20:29;6.45;;;6.10;;
14528;SDS011;7351;51.194;4.098;2022-08-14T08:22:57;7.18;;;6.68;;
14528;SDS011;7351;51.194;4.098;2022-08-14T08:25:27;6.20;;;5.82;;
14528;SDS011;7351;51.194;4.098;2022-08-14T08:28:00;6.78;;;6.32;;
14528;SDS011;7351;51.194;4.098;2022-08-14T08:30:31;6.82;;;6.30;;
14528;SDS011;7351;51.194;4.098;2022-08-14T08:32:59;7.47;;;6.97;;
14528;SDS011;7351;51.194;4.098;2022-08-14T08:35:27;7.30;;;6.80;;
14528;SDS011;7351;51.194;4.098;2022-08-14T08:37:59;6.88;;;6.47;;
14528;SDS011;7351;51.194;4.098;2022-08-14T08:40:28;8.60;;;8.07;;
14528;SDS011;7351;51.194;4.098;2022-08-14T08:43:01;7.20;;;6.70;;
14528;SDS011;7351;51.194;4.098;2022-08-14T08:45:29;6.78;;;6.40;;
14528;SDS011;7351;51.194;4.098;2022-08-14T08:47:57;7.80;;;7.30;;
14528;SDS011;7351;51.194;4.098;2022-08-14T08:50:24;8.70;;;8.20;;
14528;SDS011;7351;51.194;4.098;2022-08-14T08:52:55;8.68;;;8.10;;
14528;SDS011;7351;51.194;4.098;2022-08-14T08:55:24;8.57;;;7.93;;
14528;SDS011;7351;51.194;4.098;2022-08-14T08:57:53;10.85;;;10.05;;
14528;SDS011;7351;51.194;4.098;2022-08-14T09:00:23;9.07;;;7.85;;
14528;SDS011;7351;51.194;4.098;2022-08-14T09:02:57;10.00;;;9.15;;
14528;SDS011;7351;51.194;4.098;2022-08-14T09:05:27;8.30;;;7.78;;
14528;SDS011;7351;51.194;4.098;2022-08-14T09:08:07;6.78;;;6.15;;
14528;SDS011;7351;51.194;4.098;2022-08-14T09:10:35;7.63;;;7.13;;
14528;SDS011;7351;51.194;4.098;2022-08-14T09:13:03;7.82;;;7.03;;
14528;SDS011;7351;51.194;4.098;2022-08-14T09:15:31;7.47;;;6.90;;
14528;SDS011;7351;51.194;4.098;2022-08-14T09:17:58;7.25;;;6.57;;
14528;SDS011;7351;51.194;4.098;2022-08-14T09:20:26;10.40;;;6.35;;
14528;SDS011;7351;51.194;4.098;2022-08-14T09:22:53;6.57;;;5.97;;
14528;SDS011;7351;51.194;4.098;2022-08-14T09:25:21;6.95;;;6.45;;
14528;SDS011;7351;51.194;4.098;2022-08-14T09:27:48;8.18;;;7.68;;
14528;SDS011;7351;51.194;4.098;2022-08-14T09:30:16;7.47;;;6.85;;
14528;SDS011;7351;51.194;4.098;2022-08-14T09:32:49;7.32;;;6.82;;
14528;SDS011;7351;51.194;4.098;2022-08-14T09:35:42;7.13;;;6.30;;
14528;SDS011;7351;51.194;4.098;2022-08-14T09:38:21;6.05;;;5.65;;
14528;SDS011;7351;51.194;4.098;2022-08-14T09:40:56;6.18;;;5.78;;
14528;SDS011;7351;51.194;4.098;2022-08-14T09:43:32;6.65;;;6.05;;
14528;SDS011;7351;51.194;4.098;2022-08-14T09:46:08;6.60;;;6.10;;
14528;SDS011;7351;51.194;4.098;2022-08-14T09:48:38;6.50;;;5.95;;
14528;SDS011;7351;51.194;4.098;2022-08-14T09:51:06;6.65;;;6.15;;
14528;SDS011;7351;51.194;4.098;2022-08-14T09:53:35;7.82;;;6.18;;
14528;SDS011;7351;51.194;4.098;2022-08-14T09:56:06;8.02;;;6.60;;
14528;SDS011;7351;51.194;4.098;2022-08-14T09:58:37;5.68;;;5.30;;
14528;SDS011;7351;51.194;4.098;2022-08-14T10:01:09;5.40;;;5.07;;
14528;SDS011;7351;51.194;4.098;2022-08-14T10:03:46;6.22;;;5.53;;
14528;SDS011;7351;51.194;4.098;2022-08-14T10:06:16;5.65;;;5.30;;
14528;SDS011;7351;51.194;4.098;2022-08-14T10:08:46;5.55;;;5.05;;
14528;SDS011;7351;51.194;4.098;2022-08-14T10:11:15;5.38;;;5.07;;
14528;SDS011;7351;51.194;4.098;2022-08-14T10:13:46;7.90;;;7.20;;
14528;SDS011;7351;51.194;4.098;2022-08-14T10:16:18;5.72;;;5.35;;
14528;SDS011;7351;51.194;4.098;2022-08-14T10:18:49;4.45;;;4.15;;
14528;SDS011;7351;51.194;4.098;2022-08-14T10:21:26;4.93;;;4.43;;
14528;SDS011;7351;51.194;4.098;2022-08-14T10:23:53;7.22;;;5.13;;
14528;SDS011;7351;51.194;4.098;2022-08-14T10:26:20;3.72;;;3.42;;
14528;SDS011;7351;51.194;4.098;2022-08-14T10:28:49;3.85;;;3.55;;
14528;SDS011;7351;51.194;4.098;2022-08-14T10:31:18;4.47;;;4.25;;
14528;SDS011;7351;51.194;4.098;2022-08-14T10:33:57;3.72;;;3.10;;
14528;SDS011;7351;51.194;4.098;2022-08-14T10:36:27;3.28;;;3.08;;
14528;SDS011;7351;51.194;4.098;2022-08-14T10:38:57;3.47;;;3.28;;
14528;SDS011;7351;51.194;4.098;2022-08-14T10:41:33;3.75;;;2.88;;
14528;SDS011;7351;51.194;4.098;2022-08-14T10:44:04;3.20;;;2.60;;
14528;SDS011;7351;51.194;4.098;2022-08-14T10:46:40;3.38;;;3.08;;
14528;SDS011;7351;51.194;4.098;2022-08-14T10:49:23;3.63;;;3.30;;
14528;SDS011;7351;51.194;4.098;2022-08-14T10:52:02;4.70;;;2.75;;
14528;SDS011;7351;51.194;4.098;2022-08-14T10:54:34;2.92;;;2.72;;
14528;SDS011;7351;51.194;4.098;2022-08-14T10:57:18;2.40;;;1.98;;
14528;SDS011;7351;51.194;4.098;2022-08-14T10:59:48;4.22;;;2.38;;
14528;SDS011;7351;51.194;4.098;2022-08-14T11:02:22;3.15;;;2.65;;
14528;SDS011;7351;51.194;4.098;2022-08-14T11:05:03;4.22;;;2.72;;
14528;SDS011;7351;51.194;4.098;2022-08-14T11:07:37;2.35;;;2.25;;
14528;SDS011;7351;51.194;4.098;2022-08-14T11:10:09;2.65;;;2.45;;
14528;SDS011;7351;51.194;4.098;2022-08-14T11:12:39;2.65;;;2.55;;
14528;SDS011;7351;51.194;4.098;2022-08-14T11:15:12;3.40;;;3.10;;
14528;SDS011;7351;51.194;4.098;2022-08-14T11:17:42;2.80;;;2.67;;
14528;SDS011;7351;51.194;4.098;2022-08-14T11:20:14;2.45;;;2.28;;
14528;SDS011;7351;51.194;4.098;2022-08-14T11:22:44;2.95;;;2.75;;
14528;SDS011;7351;51.194;4.098;2022-08-14T11:25:13;5.13;;;2.28;;
14528;SDS011;7351;51.194;4.098;2022-08-14T11:27:45;3.05;;;2.85;;
14528;SDS011;7351;51.194;4.098;2022-08-14T11:30:15;2.65;;;2.35;;
14528;SDS011;7351;51.194;4.098;2022-08-14T11:33:11;3.60;;;3.28;;
14528;SDS011;7351;51.194;4.098;2022-08-14T11:35:46;3.35;;;3.13;;
14528;SDS011;7351;51.194;4.098;2022-08-14T11:38:13;2.42;;;2.33;;
14528;SDS011;7351;51.194;4.098;2022-08-14T11:40:44;3.40;;;3.20;;
14528;SDS011;7351;51.194;4.098;2022-08-14T11:43:11;2.70;;;2.60;;
14528;SDS011;7351;51.194;4.098;2022-08-14T11:45:44;3.28;;;2.50;;
14528;SDS011;7351;51.194;4.098;2022-08-14T11:48:15;3.10;;;2.80;;
14528;SDS011;7351;51.194;4.098;2022-08-14T11:50:46;3.08;;;2.88;;
14528;SDS011;7351;51.194;4.098;2022-08-14T11:53:17;3.13;;;2.88;;
14528;SDS011;7351;51.194;4.098;2022-08-14T11:55:47;4.40;;;2.53;;
14528;SDS011;7351;51.194;4.098;2022-08-14T11:58:23;2.30;;;2.08;;
14528;SDS011;7351;51.194;4.098;2022-08-14T12:00:56;4.93;;;3.25;;
14528;SDS011;7351;51.194;4.098;2022-08-14T12:03:36;2.60;;;2.35;;
14528;SDS011;7351;51.194;4.098;2022-08-14T12:06:07;2.50;;;2.30;;
14528;SDS011;7351;51.194;4.098;2022-08-14T12:08:36;3.00;;;2.80;;
14528;SDS011;7351;51.194;4.098;2022-08-14T12:11:04;2.63;;;2.42;;
14528;SDS011;7351;51.194;4.098;2022-08-14T12:13:33;2.95;;;2.75;;
14528;SDS011;7351;51.194;4.098;2022-08-14T12:16:02;3.17;;;2.97;;
14528;SDS011;7351;51.194;4.098;2022-08-14T12:18:31;4.57;;;2.50;;
14528;SDS011;7351;51.194;4.098;2022-08-14T12:21:13;2.70;;;2.55;;
14528;SDS011;7351;51.194;4.098;2022-08-14T12:23:42;2.42;;;2.33;;
14528;SDS011;7351;51.194;4.098;2022-08-14T12:26:12;2.40;;;2.20;;
14528;SDS011;7351;51.194;4.098;2022-08-14T12:28:42;2.15;;;2.05;;
14528;SDS011;7351;51.194;4.098;2022-08-14T12:31:12;2.42;;;2.22;;
14528;SDS011;7351;51.194;4.098;2022-08-14T12:33:41;6.97;;;3.03;;
14528;SDS011;7351;51.194;4.098;2022-08-14T12:36:21;2.38;;;2.17;;
14528;SDS011;7351;51.194;4.098;2022-08-14T12:38:48;2.25;;;2.05;;
14528;SDS011;7351;51.194;4.098;2022-08-14T12:41:16;2.90;;;2.70;;
14528;SDS011;7351;51.194;4.098;2022-08-14T12:43:46;2.85;;;2.65;;
14528;SDS011;7351;51.194;4.098;2022-08-14T12:46:25;2.78;;;2.58;;
14528;SDS011;7351;51.194;4.098;2022-08-14T12:48:55;2.88;;;2.67;;
14528;SDS011;7351;51.194;4.098;2022-08-14T12:51:26;1.98;;;1.88;;
14528;SDS011;7351;51.194;4.098;2022-08-14T12:53:55;2.33;;;2.20;;
14528;SDS011;7351;51.194;4.098;2022-08-14T12:56:23;2.45;;;2.25;;
14528;SDS011;7351;51.194;4.098;2022-08-14T12:58:52;2.42;;;2.20;;
14528;SDS011;7351;51.194;4.098;2022-08-14T13:01:21;2.45;;;2.35;;
14528;SDS011;7351;51.194;4.098;2022-08-14T13:03:49;2.42;;;2.30;;
14528;SDS011;7351;51.194;4.098;2022-08-14T13:06:18;3.08;;;2.20;;
14528;SDS011;7351;51.194;4.098;2022-08-14T13:08:49;3.30;;;3.15;;
14528;SDS011;7351;51.194;4.098;2022-08-14T13:11:17;2.17;;;2.05;;
14528;SDS011;7351;51.194;4.098;2022-08-14T13:13:45;4.20;;;2.38;;
14528;SDS011;7351;51.194;4.098;2022-08-14T13:16:13;2.50;;;2.40;;
14528;SDS011;7351;51.194;4.098;2022-08-14T13:18:41;5.10;;;2.53;;
14528;SDS011;7351;51.194;4.098;2022-08-14T13:21:11;2.35;;;2.20;;
14528;SDS011;7351;51.194;4.098;2022-08-14T13:23:39;2.75;;;2.33;;
14528;SDS011;7351;51.194;4.098;2022-08-14T13:26:09;2.78;;;2.58;;
14528;SDS011;7351;51.194;4.098;2022-08-14T13:28:37;2.75;;;2.00;;
14528;SDS011;7351;51.194;4.098;2022-08-14T13:31:07;2.35;;;2.15;;
14528;SDS011;7351;51.194;4.098;2022-08-14T13:33:34;4.47;;;2.38;;
14528;SDS011;7351;51.194;4.098;2022-08-14T13:36:02;3.38;;;1.75;;
14528;SDS011;7351;51.194;4.098;2022-08-14T13:38:30;3.70;;;2.40;;
14528;SDS011;7351;51.194;4.098;2022-08-14T13:40:58;4.03;;;2.72;;
14528;SDS011;7351;51.194;4.098;2022-08-14T13:43:26;2.60;;;2.40;;
14528;SDS011;7351;51.194;4.098;2022-08-14T13:49:00;2.20;;;2.00;;
14528;SDS011;7351;51.194;4.098;2022-08-14T13:51:28;2.80;;;2.60;;
14528;SDS011;7351;51.194;4.098;2022-08-14T13:53:59;2.60;;;2.40;;
14528;SDS011;7351;51.194;4.098;2022-08-14T13:56:28;3.30;;;2.60;;
14528;SDS011;7351;51.194;4.098;2022-08-14T13:58:59;2.30;;;2.20;;
14528;SDS011;7351;51.194;4.098;2022-08-14T14:01:27;3.33;;;2.53;;
14528;SDS011;7351;51.194;4.098;2022-08-14T14:03:57;2.40;;;2.30;;
14528;SDS011;7351;51.194;4.098;2022-08-14T14:06:24;3.72;;;2.55;;
14528;SDS011;7351;51.194;4.098;2022-08-14T14:08:53;2.55;;;2.35;;
14528;SDS011;7351;51.194;4.098;2022-08-14T14:11:23;2.72;;;2.63;;
14528;SDS011;7351;51.194;4.098;2022-08-14T14:13:52;2.85;;;2.30;;
14528;SDS011;7351;51.194;4.098;2022-08-14T14:19:43;2.40;;;2.20;;
14528;SDS011;7351;51.194;4.098;2022-08-14T14:22:13;2.50;;;2.03;;
14528;SDS011;7351;51.194;4.098;2022-08-14T14:24:42;2.10;;;1.90;;
14528;SDS011;7351;51.194;4.098;2022-08-14T14:27:12;1.90;;;1.80;;
14528;SDS011;7351;51.194;4.098;2022-08-14T14:29:44;2.03;;;1.90;;
14528;SDS011;7351;51.194;4.098;2022-08-14T14:32:15;2.63;;;2.30;;
14528;SDS011;7351;51.194;4.098;2022-08-14T14:34:47;2.20;;;2.10;;
14528;SDS011;7351;51.194;4.098;2022-08-14T14:37:18;3.97;;;2.78;;
14528;SDS011;7351;51.194;4.098;2022-08-14T14:39:47;2.80;;;2.10;;
14528;SDS011;7351;51.194;4.098;2022-08-14T14:42:16;2.72;;;2.30;;
14528;SDS011;7351;51.194;4.098;2022-08-14T14:44:45;1.70;;;1.60;;
14528;SDS011;7351;51.194;4.098;2022-08-14T14:47:17;2.00;;;1.90;;
14528;SDS011;7351;51.194;4.098;2022-08-14T14:49:48;2.50;;;1.63;;
14528;SDS011;7351;51.194;4.098;2022-08-14T14:52:15;2.05;;;1.95;;
14528;SDS011;7351;51.194;4.098;2022-08-14T14:54:43;1.92;;;1.83;;
14528;SDS011;7351;51.194;4.098;2022-08-14T14:57:13;1.92;;;1.83;;
14528;SDS011;7351;51.194;4.098;2022-08-14T14:59:42;2.00;;;1.90;;
14528;SDS011;7351;51.194;4.098;2022-08-14T15:02:10;2.30;;;2.10;;
14528;SDS011;7351;51.194;4.098;2022-08-14T15:04:49;2.20;;;2.10;;
14528;SDS011;7351;51.194;4.098;2022-08-14T15:07:17;2.10;;;2.00;;
14528;SDS011;7351;51.194;4.098;2022-08-14T15:09:44;1.80;;;1.70;;
14528;SDS011;7351;51.194;4.098;2022-08-14T15:12:11;2.33;;;2.22;;
14528;SDS011;7351;51.194;4.098;2022-08-14T15:14:38;2.40;;;2.22;;
14528;SDS011;7351;51.194;4.098;2022-08-14T15:17:05;2.35;;;2.15;;
14528;SDS011;7351;51.194;4.098;2022-08-14T15:19:32;1.77;;;1.65;;